Terminal Aerodrome Forecast
Issued by NWS

Home | Current Version | Previous Version | Text Only | Print | Product List | Glossary On
Versions: 1 2 3 4 5 6 7 8 9 10 11 12 13 14 15 16 17 18 19 20 21 22 23 24 25 26 27 28 29
000
FTUS43 KPAH 240520
TAFOWB
TAF
KOWB 240520Z 2406/2506 32003KT P6SM OVC080
      TEMPO 2407/2410 -RA BKN050
     FM241000 33003KT 6SM -RA BR SCT015 BKN035
     FM241400 31007KT 4SM -RA BR SCT007 OVC015
     FM250000 27007KT P6SM OVC025=

USA.gov is the U.S. government's official web portal to all federal, state and local government web resources and services.